createdAt,value
2018-09-15T00:01:20.101Z,100874.95
2018-09-15T00:03:50.867Z,100879.92
2018-09-15T00:06:22.581Z,100883.12
2018-09-15T00:08:53.013Z,100883.72
2018-09-15T00:11:23.959Z,100881.61
2018-09-15T00:13:54.405Z,100888.31
2018-09-15T00:16:24.854Z,100886.86
2018-09-15T00:18:55.570Z,100883.94
2018-09-15T00:21:26.048Z,100883.02
2018-09-15T00:23:56.416Z,100881.17
2018-09-15T00:26:26.825Z,100881.48
2018-09-15T00:28:57.186Z,100883.94
2018-09-15T00:31:27.639Z,100877.87
2018-09-15T00:33:58.075Z,100881.83
2018-09-15T00:36:28.505Z,100874.66
2018-09-15T00:38:58.963Z,100874.28
2018-09-15T00:41:30.008Z,100875.04
2018-09-15T00:44:00.409Z,100880.92
2018-09-15T00:46:30.858Z,100886.17
2018-09-15T00:49:01.365Z,100891.19
2018-09-15T00:51:31.740Z,100885.95
2018-09-15T00:54:02.274Z,100887.77
2018-09-15T00:56:32.744Z,100891.25
2018-09-15T00:59:03.159Z,100892.52
2018-09-15T01:01:33.796Z,100888.87
2018-09-15T01:04:05.089Z,100890.20
2018-09-15T01:06:35.452Z,100889.82
2018-09-15T01:09:09.264Z,100887.71
2018-09-15T01:11:39.691Z,100891.76
2018-09-15T01:14:10.180Z,100887.30
2018-09-15T01:16:40.585Z,100892.06
2018-09-15T01:19:10.983Z,100882.25
2018-09-15T01:21:41.420Z,100881.33
2018-09-15T01:24:11.898Z,100884.36
2018-09-15T01:26:42.299Z,100889.30
2018-09-15T01:29:12.683Z,100890.30
2018-09-15T01:31:43.128Z,100886.87
2018-09-15T01:34:13.558Z,100889.98
2018-09-15T01:36:43.915Z,100894.68
2018-09-15T01:39:14.313Z,100891.32
2018-09-15T01:41:44.716Z,100888.95
2018-09-15T01:44:15.120Z,100890.56
2018-09-15T01:46:45.530Z,100887.45
2018-09-15T01:49:15.936Z,100881.71
2018-09-15T01:51:46.351Z,100883.80
2018-09-15T01:54:16.769Z,100885.11
2018-09-15T01:56:47.188Z,100882.00
2018-09-15T01:59:17.611Z,100884.66
2018-09-15T02:01:47.978Z,100881.61
2018-09-15T02:04:18.443Z,100874.67
2018-09-15T02:06:48.840Z,100881.56
2018-09-15T02:09:19.328Z,100875.98
2018-09-15T02:11:49.675Z,100876.36
2018-09-15T02:14:20.637Z,100878.92
2018-09-15T02:16:51.073Z,100876.84
2018-09-15T02:19:22.565Z,100882.42
2018-09-15T02:21:53.014Z,100875.98
2018-09-15T02:24:23.369Z,100879.55
2018-09-15T02:26:53.756Z,100880.23
2018-09-15T02:29:24.213Z,100882.36
2018-09-15T02:31:54.621Z,100885.73
2018-09-15T02:34:24.952Z,100881.31
2018-09-15T02:36:55.384Z,100889.84
2018-09-15T02:39:25.823Z,100879.02
2018-09-15T02:41:56.298Z,100888.92
2018-09-15T02:44:26.646Z,100887.15
2018-09-15T02:46:57.141Z,100888.52
2018-09-15T02:49:27.546Z,100887.20
2018-09-15T02:51:58.008Z,100888.19
2018-09-15T02:54:28.405Z,100893.20
2018-09-15T02:56:58.861Z,100886.49
2018-09-15T02:59:29.282Z,100888.81
2018-09-15T03:01:59.740Z,100891.05
2018-09-15T03:04:30.136Z,100891.59
2018-09-15T03:07:00.603Z,100889.09
2018-09-15T03:09:31.028Z,100894.48
2018-09-15T03:12:01.431Z,100897.00
2018-09-15T03:14:31.855Z,100898.52
2018-09-15T03:17:02.241Z,100894.59
2018-09-15T03:19:32.700Z,100898.35
2018-09-15T03:22:03.130Z,100898.89
2018-09-15T03:24:33.588Z,100906.48
2018-09-15T03:27:03.999Z,100899.67
2018-09-15T03:29:34.421Z,100905.84
2018-09-15T03:32:04.884Z,100906.24
2018-09-15T03:34:35.329Z,100899.92
2018-09-15T03:37:05.668Z,100904.22
2018-09-15T03:39:36.392Z,100897.87
2018-09-15T03:42:06.874Z,100906.16
2018-09-15T03:44:37.316Z,100901.33
2018-09-15T03:47:07.724Z,100906.38
2018-09-15T03:49:38.285Z,100901.70
2018-09-15T03:52:08.681Z,100904.41
2018-09-15T03:54:39.211Z,100907.62
2018-09-15T03:57:09.597Z,100907.05
2018-09-15T03:59:40.005Z,100901.61
2018-09-15T04:02:10.352Z,100910.07
2018-09-15T04:04:40.730Z,100913.52
2018-09-15T04:07:11.110Z,100910.30
2018-09-15T04:09:41.509Z,100913.44
2018-09-15T04:12:11.923Z,100910.05
2018-09-15T04:14:42.269Z,100911.45
2018-09-15T04:17:12.707Z,100913.69
2018-09-15T04:19:43.107Z,100917.20
2018-09-15T04:22:13.585Z,100920.76
2018-09-15T04:24:44.017Z,100918.44
2018-09-15T04:27:15.039Z,100920.88
2018-09-15T04:29:45.483Z,100925.59
2018-09-15T04:32:15.867Z,100925.80
2018-09-15T04:34:46.217Z,100929.31
2018-09-15T04:37:16.650Z,100932.59
2018-09-15T04:39:47.053Z,100931.50
2018-09-15T04:42:17.533Z,100936.13
2018-09-15T04:44:47.964Z,100941.84
2018-09-15T04:47:18.406Z,100936.91
2018-09-15T04:49:48.779Z,100943.77
2018-09-15T04:52:19.367Z,100942.66
2018-09-15T04:54:49.720Z,100942.70
2018-09-15T04:57:20.276Z,100940.35
2018-09-15T04:59:51.363Z,100951.84
2018-09-15T05:02:21.700Z,100945.96
2018-09-15T05:04:52.172Z,100954.09
2018-09-15T05:07:22.628Z,100957.23
2018-09-15T05:09:53.057Z,100949.80
2018-09-15T05:12:23.532Z,100955.91
2018-09-15T05:14:53.944Z,100956.16
2018-09-15T05:17:24.355Z,100955.63
2018-09-15T05:19:54.782Z,100954.61
2018-09-15T05:22:25.139Z,100960.31
2018-09-15T05:24:55.558Z,100952.37
2018-09-15T05:27:25.936Z,100955.69
2018-09-15T05:29:56.573Z,100961.38
2018-09-15T05:32:27.872Z,100952.04
2018-09-15T05:34:58.549Z,100948.66
2018-09-15T05:37:30.421Z,100957.47
2018-09-15T05:40:02.002Z,100962.82
2018-09-15T05:42:32.394Z,100963.20
2018-09-15T05:45:02.923Z,100965.11
2018-09-15T05:47:35.047Z,100968.72
2018-09-15T05:50:05.715Z,100976.02
2018-09-15T05:52:36.053Z,100981.31
2018-09-15T05:55:07.176Z,100981.36
2018-09-15T05:57:37.631Z,100975.87
2018-09-15T06:00:08.159Z,100983.39
2018-09-15T06:02:38.608Z,100983.69
2018-09-15T06:05:10.838Z,100984.06
2018-09-15T06:07:41.330Z,100987.23
2018-09-15T06:10:11.634Z,100989.59
2018-09-15T06:12:42.084Z,100994.27
2018-09-15T06:15:12.423Z,101001.55
2018-09-15T06:17:42.897Z,101001.50
2018-09-15T06:20:13.315Z,101007.05
2018-09-15T06:22:43.754Z,101005.55
2018-09-15T06:25:14.255Z,101007.48
2018-09-15T06:27:44.704Z,101013.19
2018-09-15T06:30:15.068Z,101018.53
2018-09-15T06:32:45.611Z,101020.86
2018-09-15T06:35:16.137Z,101026.45
2018-09-15T06:37:46.771Z,101031.69
2018-09-15T06:40:17.274Z,101036.54
2018-09-15T06:42:47.785Z,101040.22
2018-09-15T06:45:18.311Z,101041.48
2018-09-15T06:47:48.665Z,101047.17
2018-09-15T06:50:19.073Z,101051.44
2018-09-15T06:52:49.501Z,101050.91
2018-09-15T06:55:20.412Z,101043.40
2018-09-15T06:57:50.769Z,101041.27
2018-09-15T07:00:21.328Z,101040.44
2018-09-15T07:02:51.712Z,101044.30
2018-09-15T07:05:22.057Z,101044.13
2018-09-15T07:07:52.575Z,101062.56
2018-09-15T07:10:23.028Z,101056.28
2018-09-15T07:12:53.606Z,101060.52
2018-09-15T07:15:24.007Z,101061.92
2018-09-15T07:17:54.656Z,101064.59
2018-09-15T07:20:25.074Z,101062.97
2018-09-15T07:22:55.471Z,101067.66
2018-09-15T07:25:25.932Z,101071.06
2018-09-15T07:27:56.362Z,101073.41
2018-09-15T07:30:26.722Z,101066.59
2018-09-15T07:32:57.141Z,101063.28
2018-09-15T07:35:27.597Z,101071.09
2018-09-15T07:37:57.956Z,101079.16
2018-09-15T07:40:28.407Z,101085.43
2018-09-15T07:42:59.826Z,101093.42
2018-09-15T07:45:31.305Z,101101.26
2018-09-15T07:48:02.132Z,101106.26
2018-09-15T07:50:32.564Z,101108.68
2018-09-15T07:53:03.100Z,101103.08
2018-09-15T07:55:33.491Z,101106.11
2018-09-15T07:58:03.979Z,101107.34
2018-09-15T08:00:34.391Z,101107.84
2018-09-15T08:03:06.912Z,101106.72
2018-09-15T08:05:37.300Z,101111.25
2018-09-15T08:08:07.804Z,101106.29
2018-09-15T08:10:38.130Z,101105.18
2018-09-15T08:13:08.514Z,101112.21
2018-09-15T08:15:38.991Z,101115.28
2018-09-15T08:18:09.295Z,101117.20
2018-09-15T08:20:39.698Z,101113.52
2018-09-15T08:23:14.660Z,101104.98
2018-09-15T08:25:45.037Z,101101.52
2018-09-15T08:28:15.393Z,101110.92
2018-09-15T08:30:45.767Z,101108.91
2018-09-15T08:33:16.214Z,101108.59
2018-09-15T08:35:46.874Z,101115.47
2018-09-15T08:38:17.219Z,101117.89
2018-09-15T08:40:47.668Z,101119.94
2018-09-15T08:43:18.159Z,101114.67
2018-09-15T08:45:50.661Z,101120.13
2018-09-15T08:48:21.051Z,101125.13
2018-09-15T08:50:51.533Z,101131.91
2018-09-15T08:53:21.923Z,101131.66
2018-09-15T08:58:50.017Z,101137.08
2018-09-15T09:01:20.471Z,101142.70
2018-09-15T09:03:50.895Z,101145.63
2018-09-15T09:06:21.344Z,101144.28
2018-09-15T09:08:51.721Z,101149.31
2018-09-15T09:11:22.095Z,101150.16
2018-09-15T09:13:52.581Z,101149.83
2018-09-15T09:16:22.928Z,101147.63
2018-09-15T09:18:53.427Z,101153.26
2018-09-15T09:21:23.853Z,101157.53
2018-09-15T09:23:54.329Z,101163.09
2018-09-15T09:26:24.842Z,101163.09
2018-09-15T09:28:55.242Z,101156.81
2018-09-15T09:31:25.672Z,101164.80
2018-09-15T09:33:56.129Z,101154.41
2018-09-15T09:36:26.475Z,101156.29
2018-09-15T09:38:56.880Z,101166.68
2018-09-15T09:41:27.336Z,101161.48
2018-09-15T09:43:57.789Z,101169.79
2018-09-15T09:46:28.205Z,101174.22
2018-09-15T09:48:58.690Z,101170.97
2018-09-15T09:51:29.124Z,101162.82
2018-09-15T09:53:59.551Z,101166.86
2018-09-15T09:56:29.968Z,101171.84
2018-09-15T09:59:00.453Z,101170.90
2018-09-15T10:02:33.806Z,101175.52
2018-09-15T10:05:04.242Z,101174.80
2018-09-15T10:07:34.683Z,101168.62
2018-09-15T10:10:05.197Z,101162.45
2018-09-15T10:12:35.570Z,101163.05
2018-09-15T10:15:06.044Z,101167.01
2018-09-15T10:17:36.426Z,101164.42
2018-09-15T10:20:07.166Z,101163.09
2018-09-15T10:22:37.592Z,101159.78
2018-09-15T10:25:08.267Z,101160.84
2018-09-15T10:27:38.724Z,101156.11
2018-09-15T10:30:09.149Z,101151.81
2018-09-15T10:32:39.559Z,101158.63
2018-09-15T10:35:09.983Z,101159.84
2018-09-15T10:37:40.981Z,101157.08
2018-09-15T10:40:11.378Z,101167.67
2018-09-15T10:42:41.844Z,101169.52
2018-09-15T10:45:12.625Z,101163.82
2018-09-15T10:47:43.058Z,101161.72
2018-09-15T10:50:13.465Z,101159.44
2018-09-15T10:52:43.921Z,101169.59
2018-09-15T10:55:14.305Z,101175.72
2018-09-15T10:57:44.698Z,101175.50
2018-09-15T11:00:15.173Z,101178.52
2018-09-15T11:02:45.512Z,101169.91
2018-09-15T11:05:15.895Z,101169.45
2018-09-15T11:07:46.241Z,101178.18
2018-09-15T11:10:16.647Z,101169.94
2018-09-15T11:12:47.013Z,101174.17
2018-09-15T11:15:17.410Z,101165.92
2018-09-15T11:17:47.936Z,101164.16
2018-09-15T11:20:18.385Z,101156.82
2018-09-15T11:22:48.821Z,101156.63
2018-09-15T11:25:19.289Z,101143.64
2018-09-15T11:27:49.709Z,101140.84
2018-09-15T11:30:20.122Z,101138.03
2018-09-15T11:32:50.391Z,101143.27
2018-09-15T11:35:20.760Z,101133.39
2018-09-15T11:37:51.221Z,101135.34
2018-09-15T11:40:21.563Z,101126.48
2018-09-15T11:42:51.978Z,101130.57
2018-09-15T11:45:22.351Z,101146.85
2018-09-15T11:47:52.733Z,101137.42
2018-09-15T11:50:23.096Z,101142.53
2018-09-15T11:52:53.495Z,101140.83
2018-09-15T11:55:23.922Z,101135.92
2018-09-15T11:57:54.292Z,101128.40
2018-09-15T12:00:29.357Z,101131.92
2018-09-15T12:02:59.865Z,101136.14
2018-09-15T12:05:30.199Z,101144.53
2018-09-15T12:08:00.859Z,101143.91
2018-09-15T12:10:31.213Z,101153.20
2018-09-15T12:13:01.726Z,101157.43
2018-09-15T12:15:32.060Z,101167.77
2018-09-15T12:18:02.448Z,101169.17
2018-09-15T12:20:32.831Z,101164.02
2018-09-15T12:23:03.173Z,101161.60
2018-09-15T12:25:34.356Z,101164.77
2018-09-15T12:28:05.088Z,101165.49
2018-09-15T12:30:35.907Z,101171.00
2018-09-15T12:33:06.741Z,101171.32
2018-09-15T12:35:37.447Z,101179.89
2018-09-15T12:38:08.184Z,101175.73
2018-09-15T12:40:39.018Z,101174.61
2018-09-15T12:43:09.763Z,101173.09
2018-09-15T12:45:40.487Z,101179.05
2018-09-15T12:48:11.250Z,101175.11
2018-09-15T12:50:41.950Z,101171.58
2018-09-15T12:53:12.648Z,101180.92
2018-09-15T12:55:43.292Z,101182.52
2018-09-15T12:58:14.024Z,101179.49
2018-09-15T13:00:44.833Z,101182.70
2018-09-15T13:03:15.609Z,101201.41
2018-09-15T13:05:46.339Z,101193.34
2018-09-15T13:08:17.085Z,101185.52
2018-09-15T13:10:47.855Z,101194.23
2018-09-15T13:13:18.517Z,101190.93
2018-09-15T13:15:49.335Z,101191.53
2018-09-15T13:18:20.266Z,101200.06
2018-09-15T13:20:51.115Z,101194.02
2018-09-15T13:23:22.098Z,101201.57
2018-09-15T13:25:52.827Z,101198.63
2018-09-15T13:28:23.604Z,101192.56
2018-09-15T13:30:54.410Z,101191.06
2018-09-15T13:33:25.071Z,101195.16
2018-09-15T13:35:55.860Z,101196.03
2018-09-15T13:38:26.645Z,101193.35
2018-09-15T13:40:57.453Z,101193.23
2018-09-15T13:43:28.170Z,101186.35
2018-09-15T13:45:58.955Z,101180.80
2018-09-15T13:48:29.669Z,101181.59
2018-09-15T13:51:00.707Z,101179.34
2018-09-15T13:53:31.635Z,101184.77
2018-09-15T13:56:02.438Z,101186.09
2018-09-15T13:58:33.348Z,101193.86
2018-09-15T14:01:04.117Z,101196.41
2018-09-15T14:03:35.032Z,101194.56
2018-09-15T14:06:05.842Z,101193.91
2018-09-15T14:08:36.655Z,101201.70
2018-09-15T14:11:07.497Z,101199.02
2018-09-15T14:13:38.426Z,101202.41
2018-09-15T14:16:09.164Z,101198.46
2018-09-15T14:18:39.931Z,101201.67
2018-09-15T14:21:10.667Z,101199.44
2018-09-15T14:23:41.480Z,101203.36
2018-09-15T14:26:12.295Z,101207.27
2018-09-15T14:28:43.089Z,101206.15
2018-09-15T14:31:13.909Z,101200.64
2018-09-15T14:33:44.689Z,101188.92
2018-09-15T14:36:15.494Z,101184.05
2018-09-15T14:38:46.467Z,101186.09
2018-09-15T14:41:17.177Z,101188.06
2018-09-15T14:43:47.900Z,101188.77
2018-09-15T14:46:18.605Z,101185.47
2018-09-15T14:48:49.529Z,101186.80
2018-09-15T14:51:20.342Z,101190.81
2018-09-15T14:53:51.077Z,101187.92
2018-09-15T14:56:22.095Z,101183.20
2018-09-15T14:58:52.971Z,101188.31
2018-09-15T15:01:23.843Z,101185.72
2018-09-15T15:03:54.563Z,101184.06
2018-09-15T15:06:25.261Z,101196.48
2018-09-15T15:08:55.971Z,101194.84
2018-09-15T15:11:26.716Z,101193.47
2018-09-15T15:13:57.428Z,101198.23
2018-09-15T15:16:28.168Z,101189.23
2018-09-15T15:18:58.825Z,101183.56
2018-09-15T15:21:29.585Z,101184.50
2018-09-15T15:24:00.340Z,101175.13
2018-09-15T15:26:31.083Z,101173.24
2018-09-15T15:29:02.009Z,101173.91
2018-09-15T15:31:32.699Z,101176.30
2018-09-15T15:34:03.456Z,101179.56
2018-09-15T15:36:34.225Z,101179.20
2018-09-15T15:39:06.637Z,101186.16
2018-09-15T15:41:37.347Z,101185.89
2018-09-15T15:44:08.184Z,101182.99
2018-09-15T15:46:39.149Z,101185.41
2018-09-15T15:49:09.881Z,101190.20
2018-09-15T15:51:40.664Z,101195.40
2018-09-15T15:54:11.352Z,101188.39
2018-09-15T15:56:42.080Z,101187.02
2018-09-15T15:59:12.847Z,101191.77
2018-09-15T16:01:43.626Z,101182.36
2018-09-15T16:04:14.341Z,101188.87
2018-09-15T16:06:45.056Z,101185.11
2018-09-15T16:09:15.753Z,101188.89
2018-09-15T16:11:46.477Z,101186.80
2018-09-15T16:14:17.202Z,101188.47
2018-09-15T16:16:47.897Z,101188.77
2018-09-15T16:19:18.642Z,101189.11
2018-09-15T16:21:49.332Z,101183.41
2018-09-15T16:24:20.066Z,101183.94
2018-09-15T16:26:50.730Z,101182.98
2018-09-15T16:29:21.464Z,101182.41
2018-09-15T16:31:52.205Z,101182.80
2018-09-15T16:34:22.917Z,101179.07
2018-09-15T16:36:53.633Z,101180.02
2018-09-15T16:39:24.377Z,101178.28
2018-09-15T16:41:55.099Z,101183.23
2018-09-15T16:44:25.883Z,101179.14
2018-09-15T16:46:56.548Z,101182.84
2018-09-15T16:49:27.256Z,101177.09
2018-09-15T16:51:58.001Z,101177.91
2018-09-15T16:54:28.651Z,101183.75
2018-09-15T16:56:59.510Z,101183.23
2018-09-15T16:59:30.157Z,101181.44
2018-09-15T17:02:00.853Z,101182.97
2018-09-15T17:04:31.566Z,101184.02
2018-09-15T17:07:02.390Z,101186.80
2018-09-15T17:09:33.196Z,101178.31
2018-09-15T17:12:03.968Z,101175.94
2018-09-15T17:14:34.783Z,101173.06
2018-09-15T17:17:05.573Z,101176.42
2018-09-15T17:19:36.783Z,101177.35
2018-09-15T17:22:07.466Z,101182.13
2018-09-15T17:24:38.173Z,101177.47
2018-09-15T17:27:09.077Z,101179.25
2018-09-15T17:29:39.753Z,101179.64
2018-09-15T17:32:11.537Z,101182.00
2018-09-15T17:34:42.314Z,101188.06
2018-09-15T17:37:13.033Z,101188.08
2018-09-15T17:39:43.774Z,101185.47
2018-09-15T17:42:14.451Z,101180.58
2018-09-15T17:44:45.127Z,101191.11
2018-09-15T17:47:15.864Z,101189.77
2018-09-15T17:49:46.604Z,101186.11
2018-09-15T17:52:17.345Z,101192.38
2018-09-15T17:54:48.102Z,101197.36
2018-09-15T17:57:18.787Z,101198.75
2018-09-15T17:59:49.464Z,101205.36
2018-09-15T18:02:20.211Z,101207.15
2018-09-15T18:04:51.004Z,101208.80
2018-09-15T18:07:21.674Z,101207.92
2018-09-15T18:09:52.362Z,101211.86
2018-09-15T18:12:23.205Z,101215.02
2018-09-15T18:14:53.912Z,101213.30
2018-09-15T18:17:24.824Z,101211.38
2018-09-15T18:19:55.477Z,101217.01
2018-09-15T18:22:27.088Z,101220.41
2018-09-15T18:24:57.764Z,101215.41
2018-09-15T18:27:28.484Z,101218.39
2018-09-15T18:29:59.314Z,101221.30
2018-09-15T18:32:30.301Z,101227.36
2018-09-15T18:35:00.969Z,101232.91
2018-09-15T18:37:31.820Z,101233.21
2018-09-15T18:40:02.443Z,101231.66
2018-09-15T18:42:33.198Z,101238.55
2018-09-15T18:45:03.932Z,101237.77
2018-09-15T18:47:34.682Z,101241.21
2018-09-15T18:50:05.458Z,101241.45
2018-09-15T18:52:36.199Z,101240.90
2018-09-15T18:55:06.915Z,101247.86
2018-09-15T18:57:37.612Z,101240.98
2018-09-15T19:00:08.385Z,101246.13
2018-09-15T19:02:39.116Z,101245.34
2018-09-15T19:05:09.893Z,101251.67
2018-09-15T19:07:40.635Z,101245.58
2018-09-15T19:10:11.280Z,101251.03
2018-09-15T19:12:41.953Z,101252.41
2018-09-15T19:15:12.619Z,101264.13
2018-09-15T19:17:43.323Z,101261.16
2018-09-15T19:20:14.215Z,101259.59
2018-09-15T19:22:44.867Z,101260.13
2018-09-15T19:25:15.520Z,101256.70
2018-09-15T19:27:46.255Z,101268.56
2018-09-15T19:30:17.608Z,101269.80
2018-09-15T19:32:48.311Z,101271.13
2018-09-15T19:35:18.925Z,101264.17
2018-09-15T19:37:49.635Z,101267.87
2018-09-15T19:40:20.363Z,101268.88
2018-09-15T19:42:51.017Z,101269.79
2018-09-15T19:45:21.727Z,101269.25
2018-09-15T19:47:52.458Z,101269.79
2018-09-15T19:50:23.142Z,101275.41
2018-09-15T19:52:53.839Z,101278.20
2018-09-15T19:55:24.539Z,101275.06
2018-09-15T19:57:55.263Z,101278.39
2018-09-15T20:00:25.930Z,101279.94
2018-09-15T20:02:56.562Z,101279.77
2018-09-15T20:05:27.223Z,101276.55
2018-09-15T20:07:57.924Z,101284.27
2018-09-15T20:10:28.613Z,101282.20
2018-09-15T20:12:59.330Z,101284.86
2018-09-15T20:15:30.320Z,101277.52
2018-09-15T20:17:59.713Z,101282.95
2018-09-15T20:20:28.600Z,101285.81
2018-09-15T20:22:59.279Z,101288.30
2018-09-15T20:25:30.004Z,101285.91
2018-09-15T20:28:00.735Z,101286.61
2018-09-15T20:30:31.444Z,101288.18
2018-09-15T20:33:02.247Z,101285.98
2018-09-15T20:35:32.851Z,101284.74
2018-09-15T20:38:03.451Z,101282.47
2018-09-15T20:40:34.200Z,101281.47
2018-09-15T20:43:04.849Z,101282.01
2018-09-15T20:45:35.527Z,101289.51
2018-09-15T20:48:06.311Z,101289.51
2018-09-15T20:50:36.984Z,101286.98
2018-09-15T20:53:07.688Z,101286.19
2018-09-15T20:55:38.356Z,101281.55
2018-09-15T20:58:09.072Z,101280.77
2018-09-15T21:00:39.779Z,101289.26
2018-09-15T21:03:10.494Z,101284.62
2018-09-15T21:05:41.171Z,101286.02
2018-09-15T21:08:11.892Z,101284.77
2018-09-15T21:10:42.577Z,101283.70
2018-09-15T21:13:13.301Z,101285.52
2018-09-15T21:15:44.036Z,101287.46
2018-09-15T21:18:14.882Z,101280.58
2018-09-15T21:20:45.642Z,101281.98
2018-09-15T21:23:16.308Z,101281.77
2018-09-15T21:25:46.989Z,101285.87
2018-09-15T21:28:17.840Z,101282.05
2018-09-15T21:30:48.529Z,101280.13
2018-09-15T21:33:19.285Z,101283.42
2018-09-15T21:35:50.011Z,101287.72
2018-09-15T21:38:20.901Z,101286.66
2018-09-15T21:40:51.629Z,101290.26
2018-09-15T21:43:22.348Z,101292.30
2018-09-15T21:45:53.018Z,101294.65
2018-09-15T21:48:23.987Z,101289.95
2018-09-15T21:50:54.703Z,101288.18
2018-09-15T21:53:25.566Z,101294.00
2018-09-15T21:55:56.252Z,101296.77
2018-09-15T21:58:26.856Z,101295.97
2018-09-15T22:01:02.677Z,101291.66
2018-09-15T22:04:36.184Z,101295.75
2018-09-15T22:07:06.963Z,101297.14
2018-09-15T22:09:37.644Z,101295.14
2018-09-15T22:12:08.412Z,101295.28
2018-09-15T22:14:39.839Z,101300.31
2018-09-15T22:17:10.579Z,101303.14
2018-09-15T22:19:41.259Z,101301.05
2018-09-15T22:22:12.081Z,101297.76
2018-09-15T22:24:42.810Z,101301.91
2018-09-15T22:27:13.582Z,101301.15
2018-09-15T22:29:44.268Z,101296.27
2018-09-15T22:32:15.005Z,101296.66
2018-09-15T22:34:45.633Z,101288.86
2018-09-15T22:37:16.335Z,101286.25
2018-09-15T22:39:47.008Z,101283.41
2018-09-15T22:42:17.859Z,101288.42
2018-09-15T22:44:48.468Z,101296.44
2018-09-15T22:47:19.227Z,101292.11
2018-09-15T22:49:49.896Z,101286.03
2018-09-15T22:52:20.660Z,101291.39
2018-09-15T22:54:51.353Z,101289.99
2018-09-15T22:57:22.056Z,101282.97
2018-09-15T22:59:52.740Z,101282.33
2018-09-15T23:02:23.474Z,101274.18
2018-09-15T23:04:54.154Z,101275.50
2018-09-15T23:07:24.844Z,101278.33
2018-09-15T23:09:56.007Z,101281.61
2018-09-15T23:12:26.695Z,101275.09
2018-09-15T23:14:57.473Z,101276.35
2018-09-15T23:17:28.152Z,101271.20
2018-09-15T23:19:59.677Z,101276.84
2018-09-15T23:22:30.414Z,101276.35
2018-09-15T23:25:01.217Z,101281.71
2018-09-15T23:27:31.931Z,101279.24
2018-09-15T23:30:02.722Z,101278.72
2018-09-15T23:32:33.427Z,101279.20
2018-09-15T23:35:04.138Z,101277.53
2018-09-15T23:37:34.786Z,101273.67
2018-09-15T23:40:05.603Z,101274.66
2018-09-15T23:42:36.349Z,101272.08
2018-09-15T23:45:07.067Z,101261.05
2018-09-15T23:47:37.755Z,101267.00
2018-09-15T23:50:08.431Z,101268.18
2018-09-15T23:52:39.160Z,101262.12
2018-09-15T23:55:09.930Z,101268.56
2018-09-15T23:57:40.666Z,101271.20
